Time;durP1;ratioP1;P1;durP2;ratioP2;P2;SDS_P1;SDS_P2;PMS_P1;PMS_P2;Temp;Humidity;BMP_temperature;BMP_pressure;BME280_temperature;BME280_humidity;BME280_pressure;Samples;Min_cycle;Max_cycle;Signal;HPM_P1;HPM_P2
2022/11/29 00:00:59;;;;;;;15.90;9.53;;;4.70;99.90;;;;;;5057302;28;20170;-91
2022/11/29 00:03:25;;;;;;;16.17;10.37;;;4.70;99.90;;;;;;5057144;28;20236;-89
2022/11/29 00:05:52;;;;;;;17.47;10.90;;;4.70;99.90;;;;;;5057217;28;20608;-89
2022/11/29 00:08:19;;;;;;;15.33;10.07;;;4.70;99.90;;;;;;5057008;28;20643;-92
2022/11/29 00:10:44;;;;;;;22.63;10.80;;;4.70;99.90;;;;;;5057375;28;20170;-92
2022/11/29 00:13:10;;;;;;;18.53;9.67;;;4.70;99.90;;;;;;5057095;28;20235;-91
2022/11/29 00:15:37;;;;;;;16.97;10.27;;;4.70;99.90;;;;;;5039399;28;20182;-92
2022/11/29 00:18:04;;;;;;;17.80;10.10;;;4.70;99.90;;;;;;5057034;28;20512;-94
2022/11/29 00:20:31;;;;;;;16.67;10.27;;;4.70;99.90;;;;;;5057315;28;20201;-91
2022/11/29 00:22:56;;;;;;;20.17;10.63;;;4.60;99.90;;;;;;5056913;28;20212;-93
2022/11/29 00:25:23;;;;;;;16.07;9.93;;;4.70;99.90;;;;;;5057019;28;20169;-94
2022/11/29 00:27:50;;;;;;;16.17;10.00;;;4.70;99.90;;;;;;5057779;28;20189;-89
2022/11/29 00:30:17;;;;;;;19.83;10.23;;;4.70;99.90;;;;;;5057149;28;20181;-96
2022/11/29 00:32:43;;;;;;;17.70;9.63;;;4.70;99.90;;;;;;5057170;28;20170;-94
2022/11/29 00:35:11;;;;;;;14.87;9.67;;;4.70;99.90;;;;;;5045228;28;20644;-95
2022/11/29 00:37:37;;;;;;;16.73;10.43;;;4.70;99.90;;;;;;5036592;28;20274;-94
2022/11/29 00:40:04;;;;;;;22.87;11.27;;;4.70;99.90;;;;;;5036763;28;20177;-94
2022/11/29 00:42:30;;;;;;;13.70;9.53;;;4.70;99.90;;;;;;5036757;28;20238;-92
2022/11/29 00:45:04;;;;;;;16.90;10.00;;;4.70;99.90;;;;;;5035692;28;20286;-96
2022/11/29 00:47:29;;;;;;;16.37;10.17;;;4.70;99.90;;;;;;5019044;28;20188;-96
2022/11/29 00:49:55;;;;;;;15.17;10.10;;;4.70;99.90;;;;;;5018945;28;20269;-94
2022/11/29 00:52:21;;;;;;;17.60;10.73;;;4.70;99.90;;;;;;5036697;28;20182;-96
2022/11/29 00:55:02;;;;;;;22.80;10.30;;;4.70;99.90;;;;;;5036888;28;20224;-95
2022/11/29 00:57:27;;;;;;;16.40;10.60;;;4.70;99.90;;;;;;5036349;28;20204;-96
2022/11/29 00:59:53;;;;;;;16.37;9.37;;;4.70;99.90;;;;;;5035847;28;20262;-96
2022/11/29 01:02:19;;;;;;;17.40;9.77;;;4.70;99.90;;;;;;5036280;28;20269;-95
2022/11/29 01:04:44;;;;;;;17.83;10.40;;;4.70;99.90;;;;;;5026037;28;20200;-94
2022/11/29 01:07:10;;;;;;;16.00;10.63;;;4.70;99.90;;;;;;5055741;28;20166;-93
2022/11/29 01:09:36;;;;;;;17.20;10.20;;;4.80;99.90;;;;;;5054528;28;20273;-95
2022/11/29 01:12:01;;;;;;;17.73;10.90;;;4.70;99.90;;;;;;5056512;28;20227;-95
2022/11/29 01:14:29;;;;;;;23.33;10.10;;;4.70;99.90;;;;;;5038636;28;20642;-96
2022/11/29 01:16:55;;;;;;;16.00;10.30;;;4.70;99.90;;;;;;5056125;28;20201;-96
2022/11/29 01:19:20;;;;;;;17.73;10.47;;;4.70;99.90;;;;;;5022199;28;20245;-96
2022/11/29 01:21:46;;;;;;;16.47;10.17;;;4.70;99.90;;;;;;5056026;28;20177;-95
2022/11/29 01:24:12;;;;;;;18.83;11.03;;;4.70;99.90;;;;;;5055736;28;20639;-95
2022/11/29 01:26:38;;;;;;;15.20;9.90;;;4.70;99.90;;;;;;5055414;28;20178;-88
2022/11/29 01:29:03;;;;;;;16.60;10.93;;;4.70;99.90;;;;;;5055427;28;20158;-95
2022/11/29 01:31:34;;;;;;;18.67;11.00;;;4.70;99.90;;;;;;5055150;28;20508;-89
2022/11/29 01:34:01;;;;;;;18.60;10.83;;;4.60;99.90;;;;;;5055075;28;20176;-86
2022/11/29 01:36:34;;;;;;;16.97;11.10;;;4.70;99.90;;;;;;5056382;28;20177;-90
2022/11/29 01:39:03;;;;;;;17.37;10.63;;;4.70;99.90;;;;;;5037853;28;20568;-95
2022/11/29 01:41:31;;;;;;;17.67;11.50;;;4.70;99.90;;;;;;5056270;28;20165;-87
2022/11/29 01:44:02;;;;;;;17.27;11.40;;;4.70;99.90;;;;;;5056369;28;20166;-94
2022/11/29 01:46:31;;;;;;;20.27;11.93;;;4.60;99.90;;;;;;5055908;28;20170;-87
2022/11/29 01:49:26;;;;;;;17.70;11.40;;;4.60;99.90;;;;;;5055107;28;20214;-93
2022/11/29 01:52:02;;;;;;;17.33;10.63;;;4.70;99.90;;;;;;5033966;28;20209;-92
2022/11/29 01:54:29;;;;;;;21.17;11.67;;;4.60;99.90;;;;;;5054804;28;20166;-96
2022/11/29 01:56:57;;;;;;;21.13;11.80;;;4.60;99.90;;;;;;5036895;28;20265;-94
2022/11/29 01:59:27;;;;;;;21.70;12.27;;;4.60;99.90;;;;;;5054863;28;20197;-96
2022/11/29 02:01:59;;;;;;;17.90;11.67;;;4.60;99.90;;;;;;5054519;28;20778;-91
2022/11/29 02:04:25;;;;;;;19.50;11.97;;;4.60;99.90;;;;;;5037349;28;20190;-89
2022/11/29 02:06:51;;;;;;;19.00;11.83;;;4.60;99.90;;;;;;5054600;28;20678;-93
2022/11/29 02:09:19;;;;;;;18.67;11.90;;;4.60;99.90;;;;;;5055374;28;20162;-96
2022/11/29 02:12:28;;;;;;;21.03;11.77;;;4.60;99.90;;;;;;5053517;28;20209;-86
2022/11/29 02:15:07;;;;;;;22.17;11.83;;;4.60;99.90;;;;;;5054115;28;20208;-90
2022/11/29 02:17:41;;;;;;;21.70;12.20;;;4.60;99.90;;;;;;5053918;28;20528;-87
2022/11/29 02:20:31;;;;;;;18.60;11.77;;;4.60;99.90;;;;;;5054475;28;20173;-89
2022/11/29 02:23:31;;;;;;;18.97;11.93;;;4.60;99.90;;;;;;5054561;28;20208;-93
2022/11/29 02:26:34;;;;;;;17.87;11.83;;;4.60;99.90;;;;;;5054619;28;20915;-90
2022/11/29 02:29:37;;;;;;;19.43;12.30;;;4.60;99.90;;;;;;5054842;28;20170;-80
2022/11/29 02:32:40;;;;;;;22.23;12.13;;;4.60;99.90;;;;;;5054528;28;20200;-96
2022/11/29 02:35:10;;;;;;;22.63;12.53;;;4.60;99.90;;;;;;5037082;28;20204;-92
2022/11/29 02:38:05;;;;;;;18.97;12.37;;;4.60;99.90;;;;;;5055255;28;20197;-91
2022/11/29 02:41:08;;;;;;;22.07;12.30;;;4.60;99.90;;;;;;5054369;28;20716;-92
2022/11/29 02:43:40;;;;;;;22.30;12.50;;;4.60;99.90;;;;;;5036581;28;20173;-90
2022/11/29 02:46:39;;;;;;;24.77;13.17;;;4.60;99.90;;;;;;5055661;28;20173;-92
2022/11/29 02:49:34;;;;;;;25.37;13.23;;;4.60;99.90;;;;;;4982883;28;20200;-94
2022/11/29 02:52:21;;;;;;;20.67;11.90;;;4.60;99.90;;;;;;5037522;28;20177;-92
2022/11/29 02:54:54;;;;;;;20.43;12.47;;;4.60;99.90;;;;;;5054518;28;20173;-92
2022/11/29 02:57:54;;;;;;;19.60;12.03;;;4.60;99.90;;;;;;5036504;28;20177;-93
2022/11/29 03:00:22;;;;;;;22.93;12.77;;;4.60;99.90;;;;;;5037148;28;20174;-87
2022/11/29 03:02:50;;;;;;;20.07;11.80;;;4.60;99.90;;;;;;5036468;28;20222;-92
2022/11/29 03:05:27;;;;;;;19.53;12.57;;;4.50;99.90;;;;;;5036864;28;20190;-82
2022/11/29 03:08:18;;;;;;;20.63;12.37;;;4.50;99.90;;;;;;5054247;28;20169;-84
2022/11/29 03:11:02;;;;;;;22.03;11.63;;;4.50;99.90;;;;;;5054198;28;20644;-94
2022/11/29 03:13:51;;;;;;;20.87;12.93;;;4.50;99.90;;;;;;5054265;28;20178;-86
2022/11/29 03:17:00;;;;;;;22.97;12.20;;;4.50;99.90;;;;;;5054487;28;20212;-92
2022/11/29 03:19:47;;;;;;;20.97;12.60;;;4.50;99.90;;;;;;5054429;28;20251;-92
2022/11/29 03:22:34;;;;;;;19.70;12.87;;;4.50;99.90;;;;;;5055260;28;20305;-95
2022/11/29 03:25:07;;;;;;;24.40;13.03;;;4.60;99.90;;;;;;5058370;28;20162;-96
2022/11/29 03:28:05;;;;;;;19.50;12.10;;;4.50;99.90;;;;;;5058728;28;20177;-93
2022/11/29 03:30:36;;;;;;;20.83;13.07;;;4.50;99.90;;;;;;5059117;28;20604;-94
2022/11/29 03:33:30;;;;;;;21.47;12.77;;;4.50;99.90;;;;;;5058993;28;20537;-95
2022/11/29 03:36:34;;;;;;;20.33;12.67;;;4.60;99.90;;;;;;5058456;28;20247;-96
2022/11/29 03:39:06;;;;;;;24.77;12.97;;;4.50;99.90;;;;;;5058006;28;20304;-91
2022/11/29 03:41:36;;;;;;;21.30;13.27;;;4.50;99.90;;;;;;5040467;28;20174;-96
2022/11/29 03:44:26;;;;;;;18.93;12.50;;;4.50;99.90;;;;;;5057721;28;20182;-86
2022/11/29 03:47:10;;;;;;;21.47;12.70;;;4.50;99.90;;;;;;5057630;28;20249;-89
2022/11/29 03:49:55;;;;;;;24.63;12.77;;;4.50;99.90;;;;;;5057159;28;20624;-89
2022/11/29 03:52:29;;;;;;;20.07;12.57;;;4.50;99.90;;;;;;5057121;28;20247;-91
2022/11/29 03:55:31;;;;;;;21.37;12.33;;;4.50;99.90;;;;;;5057052;28;20601;-95
2022/11/29 03:58:16;;;;;;;18.17;12.23;;;4.50;99.90;;;;;;5057391;28;20287;-94
2022/11/29 04:01:23;;;;;;;20.60;12.57;;;4.50;99.90;;;;;;5056919;28;20221;-87
2022/11/29 04:04:13;;;;;;;22.47;12.47;;;4.60;99.90;;;;;;5056766;28;20209;-92
2022/11/29 04:07:04;;;;;;;24.50;12.67;;;4.60;99.90;;;;;;5057721;28;20491;-95
2022/11/29 04:09:40;;;;;;;20.30;12.63;;;4.60;99.90;;;;;;5056808;28;20252;-87
2022/11/29 04:12:15;;;;;;;20.00;13.13;;;4.60;99.90;;;;;;5056364;28;20508;-89
2022/11/29 04:15:38;;;;;;;19.73;12.37;;;4.50;99.90;;;;;;5039120;28;20604;-96
2022/11/29 04:18:35;;;;;;;21.30;12.70;;;4.50;99.90;;;;;;4976232;28;20287;-92
2022/11/29 04:21:28;;;;;;;23.33;12.63;;;4.50;99.90;;;;;;4975964;28;20169;-87
2022/11/29 04:24:12;;;;;;;21.77;12.70;;;4.60;99.90;;;;;;5046376;28;20184;-86
2022/11/29 04:27:22;;;;;;;18.83;12.50;;;4.50;99.90;;;;;;5056252;28;20166;-85
2022/11/29 04:30:12;;;;;;;19.53;12.30;;;4.50;99.90;;;;;;5056562;28;20173;-91
2022/11/29 04:32:59;;;;;;;21.57;12.43;;;4.50;99.90;;;;;;5056959;28;20159;-95
2022/11/29 04:35:47;;;;;;;21.47;12.83;;;4.50;99.90;;;;;;5055742;28;20253;-89
2022/11/29 04:41:32;;;;;;;28.83;12.20;;;4.50;99.90;;;;;;5056326;28;20170;-90
2022/11/29 04:44:33;;;;;;;21.97;12.77;;;4.50;99.90;;;;;;5056041;28;20179;-83
2022/11/29 04:47:02;;;;;;;20.83;12.13;;;4.50;99.90;;;;;;5056307;28;20170;-81
2022/11/29 04:49:50;;;;;;;23.07;11.97;;;4.40;99.90;;;;;;5056359;28;20170;-82
2022/11/29 04:52:47;;;;;;;22.17;12.57;;;4.50;99.90;;;;;;5038495;28;20182;-89
2022/11/29 04:55:36;;;;;;;23.93;13.17;;;4.40;99.90;;;;;;5038088;28;20629;-92
2022/11/29 04:58:27;;;;;;;19.50;12.50;;;4.50;99.90;;;;;;5056067;28;20198;-95
2022/11/29 05:01:20;;;;;;;19.93;11.87;;;4.40;99.90;;;;;;5056335;28;20174;-92
2022/11/29 05:04:23;;;;;;;25.20;12.70;;;4.40;99.90;;;;;;5034813;28;20229;-96
2022/11/29 05:06:58;;;;;;;24.20;12.53;;;4.40;99.90;;;;;;5036369;28;20174;-94
2022/11/29 05:09:43;;;;;;;20.37;12.23;;;4.40;99.90;;;;;;5036851;28;20166;-96
2022/11/29 05:12:28;;;;;;;22.03;13.63;;;4.40;99.90;;;;;;5036630;28;20170;-85
2022/11/29 05:15:28;;;;;;;20.37;12.87;;;4.40;99.90;;;;;;5036243;28;20163;-91
2022/11/29 05:18:23;;;;;;;20.40;12.33;;;4.40;99.90;;;;;;5036384;28;20202;-96
2022/11/29 05:21:05;;;;;;;22.67;12.70;;;4.40;99.90;;;;;;5036863;28;20221;-95
2022/11/29 05:23:54;;;;;;;22.43;13.10;;;4.40;99.90;;;;;;5036239;28;20193;-94
2022/11/29 05:26:37;;;;;;;21.90;13.37;;;4.50;99.90;;;;;;5027221;28;20218;-91
2022/11/29 05:29:25;;;;;;;20.77;12.23;;;4.50;99.90;;;;;;5036887;28;20151;-95
2022/11/29 05:32:06;;;;;;;24.23;12.80;;;4.40;99.90;;;;;;5037079;28;20236;-96
2022/11/29 05:35:07;;;;;;;22.77;13.23;;;4.50;99.90;;;;;;5035986;28;20222;-92
2022/11/29 05:38:02;;;;;;;24.13;13.70;;;4.50;99.90;;;;;;4995411;28;20262;-94
2022/11/29 05:40:50;;;;;;;22.00;13.23;;;4.40;99.90;;;;;;5036061;28;20197;-93
2022/11/29 05:43:36;;;;;;;21.50;13.23;;;4.40;99.90;;;;;;5036529;28;20163;-90
2022/11/29 05:46:06;;;;;;;22.77;13.80;;;4.40;99.90;;;;;;5029618;28;20679;-96
2022/11/29 05:49:10;;;;;;;22.33;12.47;;;4.40;99.90;;;;;;5035101;28;20497;-96
2022/11/29 05:52:10;;;;;;;24.00;13.40;;;4.40;99.90;;;;;;5036206;28;20165;-95
2022/11/29 05:55:12;;;;;;;23.10;13.70;;;4.40;99.90;;;;;;5034532;28;20257;-94
2022/11/29 05:57:59;;;;;;;22.30;13.00;;;4.40;99.90;;;;;;5020298;28;20334;-88
2022/11/29 06:00:39;;;;;;;25.53;13.07;;;4.40;99.90;;;;;;5015839;28;20503;-95
2022/11/29 06:03:13;;;;;;;22.03;13.60;;;4.40;99.90;;;;;;5041372;28;20239;-94
2022/11/29 06:05:45;;;;;;;23.87;13.60;;;4.40;99.90;;;;;;5055409;28;20162;-90
2022/11/29 06:08:17;;;;;;;24.17;14.30;;;4.40;99.90;;;;;;5054511;28;20174;-94
2022/11/29 06:10:56;;;;;;;23.70;13.30;;;4.50;99.90;;;;;;5056192;28;20184;-88
2022/11/29 06:13:46;;;;;;;24.00;14.47;;;4.40;99.90;;;;;;5037605;28;20178;-90
2022/11/29 06:16:27;;;;;;;22.83;13.80;;;4.50;99.90;;;;;;5056438;28;20216;-92
2022/11/29 06:19:36;;;;;;;27.10;14.53;;;4.50;99.90;;;;;;5039034;28;20590;-87
2022/11/29 06:22:44;;;;;;;28.13;15.13;;;4.50;99.90;;;;;;5055571;28;20241;-92
2022/11/29 06:25:41;;;;;;;24.30;13.07;;;4.40;99.90;;;;;;5018534;28;20644;-95
2022/11/29 06:28:21;;;;;;;24.47;14.60;;;4.40;99.90;;;;;;5028652;28;20258;-94
2022/11/29 06:31:19;;;;;;;23.23;14.33;;;4.40;99.90;;;;;;5036350;28;20154;-95
2022/11/29 06:34:09;;;;;;;25.50;14.23;;;4.40;99.90;;;;;;5018264;28;20183;-93
2022/11/29 06:36:49;;;;;;;29.27;15.50;;;4.40;99.90;;;;;;5036292;28;20181;-93
2022/11/29 06:39:21;;;;;;;29.47;17.53;;;4.40;99.90;;;;;;5042325;28;20210;-95
2022/11/29 06:41:51;;;;;;;25.23;13.97;;;4.40;99.90;;;;;;5057913;28;20206;-93
2022/11/29 06:44:17;;;;;;;26.17;14.60;;;4.40;99.90;;;;;;5055821;28;20198;-93
2022/11/29 06:46:47;;;;;;;25.83;14.77;;;4.40;99.90;;;;;;5055481;28;20180;-94
2022/11/29 06:49:25;;;;;;;25.47;15.07;;;4.40;99.90;;;;;;5060215;28;20181;-95
2022/11/29 06:51:58;;;;;;;25.03;14.40;;;4.40;99.90;;;;;;5072899;28;20169;-90
2022/11/29 06:55:03;;;;;;;25.17;14.33;;;4.40;99.90;;;;;;5054563;28;20231;-88
2022/11/29 06:57:47;;;;;;;27.77;15.43;;;4.40;99.90;;;;;;5006899;28;20189;-91
2022/11/29 07:00:26;;;;;;;22.27;14.63;;;4.40;99.90;;;;;;5058944;28;20200;-90
2022/11/29 07:03:20;;;;;;;26.53;14.87;;;4.40;99.90;;;;;;5058396;28;20240;-91
2022/11/29 07:05:46;;;;;;;29.70;14.10;;;4.50;99.90;;;;;;5058749;28;20280;-91
2022/11/29 07:08:22;;;;;;;27.80;15.57;;;4.50;99.90;;;;;;5040856;28;20276;-90
2022/11/29 07:10:52;;;;;;;24.67;15.30;;;4.40;99.90;;;;;;5057964;28;20201;-89
2022/11/29 07:13:18;;;;;;;23.27;13.83;;;4.40;99.90;;;;;;5058315;28;20170;-88
2022/11/29 07:16:31;;;;;;;26.33;14.90;;;4.50;99.90;;;;;;5058037;28;20182;-91
2022/11/29 07:19:05;;;;;;;25.63;15.57;;;4.50;99.90;;;;;;5037394;28;20266;-91
2022/11/29 07:22:00;;;;;;;29.37;16.03;;;4.50;99.90;;;;;;5040762;28;20178;-92
2022/11/29 07:24:47;;;;;;;25.07;14.57;;;4.50;99.90;;;;;;5040837;28;20506;-92
2022/11/29 07:27:23;;;;;;;25.27;14.63;;;4.40;99.90;;;;;;5058301;28;20245;-92
2022/11/29 07:30:26;;;;;;;25.17;14.03;;;4.40;99.90;;;;;;5058825;28;20184;-94
2022/11/29 07:33:08;;;;;;;26.03;15.50;;;4.40;99.90;;;;;;5041138;28;20181;-93
2022/11/29 07:35:56;;;;;;;26.93;14.70;;;4.50;99.90;;;;;;5058233;28;20158;-94
2022/11/29 07:38:25;;;;;;;25.80;14.87;;;4.50;99.90;;;;;;5040505;28;20208;-94
2022/11/29 07:41:28;;;;;;;26.87;14.53;;;4.50;99.90;;;;;;5057656;28;20181;-94
2022/11/29 07:44:20;;;;;;;26.33;15.07;;;4.50;99.90;;;;;;5016892;28;20642;-90
2022/11/29 07:46:45;;;;;;;26.30;15.30;;;4.50;99.90;;;;;;5057614;28;20178;-88
2022/11/29 07:49:12;;;;;;;27.57;15.40;;;4.50;99.90;;;;;;5057352;28;20182;-88
2022/11/29 07:51:40;;;;;;;27.87;15.90;;;4.50;99.90;;;;;;5057824;28;20220;-95
2022/11/29 07:54:18;;;;;;;28.97;16.20;;;4.50;99.90;;;;;;5040300;28;20176;-89
2022/11/29 07:56:44;;;;;;;31.33;16.17;;;4.50;99.90;;;;;;5039972;28;20165;-93
2022/11/29 07:59:11;;;;;;;27.43;16.13;;;4.50;99.90;;;;;;5057496;28;20648;-95
2022/11/29 08:01:40;;;;;;;32.50;16.03;;;4.60;99.90;;;;;;5056821;28;20257;-92
2022/11/29 08:04:07;;;;;;;27.27;16.53;;;4.60;99.90;;;;;;5039674;28;20186;-84
2022/11/29 08:06:34;;;;;;;27.10;15.60;;;4.60;99.90;;;;;;5057580;28;20261;-90
2022/11/29 08:09:00;;;;;;;29.03;17.03;;;4.60;99.90;;;;;;5057087;28;20665;-89
2022/11/29 08:11:26;;;;;;;30.83;16.07;;;4.50;99.90;;;;;;5056499;28;20205;-95
2022/11/29 08:13:56;;;;;;;30.93;16.17;;;4.50;99.90;;;;;;5056259;28;20208;-84
2022/11/29 08:16:22;;;;;;;28.83;15.93;;;4.60;99.90;;;;;;5056168;28;20208;-93
2022/11/29 08:18:51;;;;;;;32.07;16.83;;;4.60;99.90;;;;;;5057423;28;20249;-93
2022/11/29 08:21:17;;;;;;;33.23;16.63;;;4.60;99.90;;;;;;5057313;28;20216;-89
2022/11/29 08:23:47;;;;;;;29.87;16.20;;;4.60;99.90;;;;;;5056348;28;20182;-91
2022/11/29 08:26:13;;;;;;;31.70;16.97;;;4.60;99.90;;;;;;5056982;28;20170;-91
2022/11/29 08:28:39;;;;;;;27.30;15.93;;;4.70;99.90;;;;;;5057640;28;20177;-92
2022/11/29 08:31:08;;;;;;;26.97;15.50;;;4.70;99.90;;;;;;5057139;28;20624;-94
2022/11/29 08:33:39;;;;;;;31.43;17.53;;;4.70;99.90;;;;;;5057359;28;20267;-94
2022/11/29 08:36:10;;;;;;;29.20;16.30;;;4.70;99.90;;;;;;5056872;28;20252;-96
2022/11/29 08:38:36;;;;;;;32.80;18.03;;;4.70;99.90;;;;;;5054980;28;20224;-88
2022/11/29 08:41:06;;;;;;;30.30;16.93;;;4.70;99.90;;;;;;5054591;28;20178;-91
2022/11/29 08:43:32;;;;;;;27.83;16.27;;;4.70;99.90;;;;;;5038857;28;20864;-83
2022/11/29 08:45:58;;;;;;;30.27;17.50;;;4.70;99.90;;;;;;5055977;28;20231;-81
2022/11/29 08:48:24;;;;;;;35.30;18.17;;;4.80;99.90;;;;;;5054872;28;20185;-81
2022/11/29 08:50:51;;;;;;;32.17;17.63;;;4.70;99.90;;;;;;5054594;28;20595;-83
2022/11/29 08:56:01;;;;;;;29.53;17.93;;;4.80;99.90;;;;;;5056012;28;20182;-82
2022/11/29 08:58:27;;;;;;;34.97;18.17;;;4.80;99.90;;;;;;5054898;28;20210;-84
2022/11/29 09:00:55;;;;;;;30.27;18.23;;;4.80;99.90;;;;;;5055664;28;20185;-88
2022/11/29 09:06:07;;;;;;;31.17;17.97;;;4.80;99.90;;;;;;5056975;28;20212;-96
2022/11/29 09:08:33;;;;;;;33.37;18.53;;;4.90;99.90;;;;;;5062805;28;20185;-96
2022/11/29 09:11:12;;;;;;;34.23;18.40;;;4.90;99.90;;;;;;5059588;28;20182;-96
2022/11/29 09:13:43;;;;;;;34.80;19.57;;;4.90;99.90;;;;;;5052837;28;20534;-96
2022/11/29 09:16:11;;;;;;;33.97;19.40;;;4.90;99.90;;;;;;5077223;28;20208;-96
2022/11/29 09:18:38;;;;;;;38.60;20.80;;;4.90;99.90;;;;;;5067571;28;20275;-93
2022/11/29 09:21:09;;;;;;;38.20;20.27;;;4.90;99.90;;;;;;5054318;28;20188;-85
2022/11/29 09:23:39;;;;;;;37.60;20.43;;;4.80;99.90;;;;;;5036514;28;20186;-96
2022/11/29 09:26:05;;;;;;;37.83;20.30;;;4.80;99.90;;;;;;5054884;28;20277;-94
2022/11/29 09:28:32;;;;;;;38.73;21.63;;;4.90;99.90;;;;;;5054201;28;20185;-95
2022/11/29 09:31:22;;;;;;;36.70;20.77;;;4.90;99.90;;;;;;5054318;28;20640;-84
2022/11/29 09:33:48;;;;;;;40.10;21.47;;;4.90;99.90;;;;;;5032385;28;20186;-95
2022/11/29 09:36:15;;;;;;;44.57;22.63;;;4.90;99.90;;;;;;5055186;28;20232;-96
2022/11/29 09:38:41;;;;;;;39.03;21.00;;;4.90;99.90;;;;;;5055219;28;20259;-94
2022/11/29 09:41:38;;;;;;;42.93;22.40;;;5.00;99.90;;;;;;5054430;28;20184;-91
2022/11/29 09:44:19;;;;;;;34.97;20.40;;;5.00;99.90;;;;;;5037824;28;20185;-96
2022/11/29 09:47:14;;;;;;;37.93;20.90;;;5.00;99.90;;;;;;5055783;28;20549;-96
2022/11/29 09:49:56;;;;;;;38.83;20.10;;;5.00;99.90;;;;;;5039649;28;20182;-96
2022/11/29 09:52:40;;;;;;;42.30;20.47;;;5.00;99.90;;;;;;5051746;28;20507;-96
2022/11/29 09:55:15;;;;;;;37.30;20.60;;;5.00;99.90;;;;;;5041896;28;20170;-96
2022/11/29 09:57:43;;;;;;;43.33;21.93;;;5.00;99.90;;;;;;5055093;28;20157;-93
2022/11/29 10:00:19;;;;;;;45.93;21.23;;;5.00;99.90;;;;;;5055485;28;20213;-95
2022/11/29 10:02:55;;;;;;;47.13;22.53;;;4.90;99.90;;;;;;5134125;22;20221;-90
2022/11/29 10:05:36;;;;;;;39.53;21.63;;;5.00;99.90;;;;;;5017360;28;20239;-91
2022/11/29 10:08:24;;;;;;;43.83;21.80;;;5.00;99.90;;;;;;5015039;28;20198;-90
2022/11/29 10:10:56;;;;;;;44.67;22.53;;;5.00;99.90;;;;;;4999555;28;20187;-90
2022/11/29 10:13:32;;;;;;;40.60;21.53;;;5.00;99.90;;;;;;4999684;28;20669;-90
2022/11/29 10:16:38;;;;;;;48.10;22.13;;;5.00;99.90;;;;;;4981402;28;20245;-89
2022/11/29 10:19:24;;;;;;;41.87;22.70;;;5.00;99.90;;;;;;4992334;28;20677;-90
2022/11/29 10:22:10;;;;;;;40.50;22.27;;;5.00;99.90;;;;;;4999475;28;20183;-92
2022/11/29 10:24:37;;;;;;;41.00;22.30;;;5.00;99.90;;;;;;4980132;28;20255;-90
2022/11/29 10:27:18;;;;;;;42.87;23.20;;;5.00;99.90;;;;;;4997441;28;20164;-90
2022/11/29 10:29:47;;;;;;;47.00;25.70;;;5.00;99.90;;;;;;4993133;28;20190;-90
2022/11/29 10:32:15;;;;;;;43.60;24.47;;;5.00;99.90;;;;;;4999611;28;20189;-90
2022/11/29 10:34:42;;;;;;;41.73;21.97;;;5.10;99.90;;;;;;4999503;28;20175;-90
2022/11/29 10:37:21;;;;;;;45.97;23.40;;;5.20;99.90;;;;;;5003243;28;20198;-89
2022/11/29 10:39:49;;;;;;;48.20;25.13;;;5.10;99.90;;;;;;5005925;28;20700;-91
2022/11/29 10:45:16;;;;;;;44.33;22.50;;;5.20;99.90;;;;;;5017274;28;20245;-91
2022/11/29 10:47:45;;;;;;;36.90;21.93;;;5.20;99.90;;;;;;4999423;28;20205;-90
2022/11/29 10:50:19;;;;;;;37.87;21.63;;;5.20;99.90;;;;;;4999512;28;20179;-91
2022/11/29 10:52:45;;;;;;;41.83;22.73;;;5.20;99.90;;;;;;5006003;28;20182;-90
2022/11/29 10:55:13;;;;;;;46.23;23.97;;;5.20;99.90;;;;;;4999397;28;20245;-90
2022/11/29 10:58:10;;;;;;;40.70;23.43;;;5.20;99.90;;;;;;5000093;28;20198;-90
2022/11/29 11:00:46;;;;;;;44.03;22.40;;;5.10;99.90;;;;;;4988352;28;20198;-89
2022/11/29 11:03:40;;;;;;;54.60;31.50;;;5.10;99.90;;;;;;5000701;28;20698;-90
2022/11/29 11:06:26;;;;;;;43.50;23.83;;;5.10;99.90;;;;;;4999695;28;20183;-90
2022/11/29 11:09:22;;;;;;;44.33;23.90;;;5.20;99.90;;;;;;4999818;28;20207;-90
2022/11/29 11:11:55;;;;;;;41.90;22.63;;;5.20;99.90;;;;;;5011525;28;20574;-90
2022/11/29 11:14:23;;;;;;;48.03;24.03;;;5.20;99.90;;;;;;5016424;28;20215;-89
2022/11/29 11:16:50;;;;;;;40.40;23.90;;;5.20;99.90;;;;;;5000296;28;20187;-91
2022/11/29 11:19:31;;;;;;;37.53;22.23;;;5.10;99.90;;;;;;5000255;28;20206;-89
2022/11/29 11:22:02;;;;;;;39.90;22.87;;;5.20;99.90;;;;;;4999397;28;20202;-91
2022/11/29 11:24:37;;;;;;;44.40;23.70;;;5.20;99.90;;;;;;4996360;28;20275;-91
2022/11/29 11:27:03;;;;;;;40.53;22.70;;;5.20;99.90;;;;;;5023474;28;20181;-90
2022/11/29 11:29:39;;;;;;;45.47;23.23;;;5.20;99.90;;;;;;4999633;28;20167;-90
2022/11/29 11:32:16;;;;;;;35.10;20.87;;;5.20;99.90;;;;;;4999982;28;20171;-90
2022/11/29 11:35:00;;;;;;;37.43;21.17;;;5.20;99.90;;;;;;5005257;28;20228;-90
2022/11/29 11:37:31;;;;;;;39.40;21.20;;;5.20;99.90;;;;;;4999649;28;20298;-89
2022/11/29 11:40:02;;;;;;;39.20;21.90;;;5.30;99.90;;;;;;5002227;28;20194;-90
2022/11/29 11:42:36;;;;;;;38.70;21.13;;;5.20;99.90;;;;;;5004651;28;20561;-90
2022/11/29 11:45:12;;;;;;;35.83;20.60;;;5.30;99.90;;;;;;5001911;28;20191;-89
2022/11/29 11:47:48;;;;;;;40.90;22.80;;;5.30;99.90;;;;;;5003226;28;20215;-89
2022/11/29 11:50:27;;;;;;;39.43;21.67;;;5.30;99.90;;;;;;5003340;28;20183;-89
2022/11/29 11:53:27;;;;;;;42.30;22.53;;;5.30;99.90;;;;;;5008256;28;20221;-89
2022/11/29 11:56:02;;;;;;;44.00;23.20;;;5.30;99.90;;;;;;5002641;28;20212;-90
2022/11/29 11:58:51;;;;;;;40.17;21.60;;;5.30;99.90;;;;;;5006866;28;20261;-89
2022/11/29 12:01:37;;;;;;;36.73;21.33;;;5.40;99.90;;;;;;5003707;28;20245;-90
2022/11/29 12:04:29;;;;;;;48.70;25.40;;;5.40;99.90;;;;;;5008365;28;20235;-90
2022/11/29 12:07:17;;;;;;;45.07;25.17;;;5.50;99.90;;;;;;5025612;28;20182;-90
2022/11/29 12:09:45;;;;;;;45.67;24.50;;;5.40;99.90;;;;;;5002944;28;20180;-90
2022/11/29 12:12:23;;;;;;;46.27;24.93;;;5.40;99.90;;;;;;5008221;28;20183;-90
2022/11/29 12:14:58;;;;;;;46.50;24.90;;;5.30;99.90;;;;;;5010506;28;20194;-90
2022/11/29 12:17:34;;;;;;;43.83;24.50;;;5.40;99.90;;;;;;5004920;28;20670;-89
2022/11/29 12:20:32;;;;;;;42.33;23.03;;;5.40;99.90;;;;;;5002770;28;20206;-90
2022/11/29 12:23:13;;;;;;;37.87;22.73;;;5.30;99.90;;;;;;4999013;28;20191;-90
2022/11/29 12:25:53;;;;;;;43.03;23.27;;;5.40;99.90;;;;;;4999437;28;20188;-89
2022/11/29 12:28:28;;;;;;;38.80;21.87;;;5.40;99.90;;;;;;4996641;28;20686;-90
2022/11/29 12:31:04;;;;;;;41.77;22.80;;;5.40;99.90;;;;;;5002828;28;20226;-89
2022/11/29 12:33:45;;;;;;;45.10;24.30;;;5.40;99.90;;;;;;5002326;28;20226;-90
2022/11/29 12:36:32;;;;;;;46.07;26.43;;;5.40;99.90;;;;;;5010073;28;20250;-89
2022/11/29 12:38:58;;;;;;;40.87;22.83;;;5.40;99.90;;;;;;5022974;28;20223;-90
2022/11/29 12:41:56;;;;;;;43.90;23.57;;;5.40;99.90;;;;;;5007690;28;20630;-90
2022/11/29 12:44:36;;;;;;;41.60;22.77;;;5.40;99.90;;;;;;5009819;28;20293;-91
2022/11/29 12:47:08;;;;;;;44.30;23.67;;;5.40;99.90;;;;;;4998422;28;20198;-90
2022/11/29 12:49:45;;;;;;;39.20;23.30;;;5.40;99.90;;;;;;5005480;28;20270;-89
2022/11/29 12:52:41;;;;;;;43.90;24.50;;;5.40;99.90;;;;;;4994676;28;20192;-90
2022/11/29 12:55:22;;;;;;;41.30;22.37;;;5.40;99.90;;;;;;4982281;28;20222;-89
2022/11/29 12:58:23;;;;;;;39.83;21.60;;;5.40;99.90;;;;;;5007522;28;20238;-88
2022/11/29 13:01:29;;;;;;;40.07;22.70;;;5.40;99.90;;;;;;4994001;28;20197;-89
2022/11/29 13:04:04;;;;;;;41.07;21.90;;;5.40;99.90;;;;;;4961928;28;20402;-89
2022/11/29 13:06:53;;;;;;;36.10;21.77;;;5.40;99.90;;;;;;5008278;28;20189;-89
2022/11/29 13:09:37;;;;;;;42.50;22.10;;;5.40;99.90;;;;;;5007809;28;20200;-89
2022/11/29 13:12:31;;;;;;;40.77;22.00;;;5.40;99.90;;;;;;4985719;28;20241;-89
2022/11/29 13:14:57;;;;;;;41.83;21.67;;;5.40;99.90;;;;;;5000829;28;20190;-88
2022/11/29 13:17:47;;;;;;;45.60;23.67;;;5.40;99.90;;;;;;5009398;28;20215;-89
2022/11/29 13:20:22;;;;;;;43.00;24.13;;;5.40;99.90;;;;;;4998217;28;20260;-89
2022/11/29 13:23:10;;;;;;;43.50;23.43;;;5.40;99.90;;;;;;5008822;28;20218;-89
2022/11/29 13:25:53;;;;;;;42.67;23.43;;;5.40;99.90;;;;;;5005514;28;20180;-89
2022/11/29 13:28:40;;;;;;;44.27;23.83;;;5.40;99.90;;;;;;4999487;28;20678;-89
2022/11/29 13:31:11;;;;;;;43.13;23.77;;;5.40;99.90;;;;;;5002430;28;20265;-90
2022/11/29 13:34:06;;;;;;;40.70;23.43;;;5.40;99.90;;;;;;4998893;28;20194;-90
2022/11/29 13:36:44;;;;;;;43.87;23.27;;;5.40;99.90;;;;;;4997777;28;20190;-90
2022/11/29 13:39:31;;;;;;;45.20;24.33;;;5.40;99.90;;;;;;5020321;28;20210;-91
2022/11/29 13:42:43;;;;;;;44.20;23.07;;;5.40;99.90;;;;;;5004434;28;20211;-90
2022/11/29 13:45:25;;;;;;;43.73;23.70;;;5.40;99.90;;;;;;5006429;28;20193;-89
2022/11/29 13:47:57;;;;;;;46.77;23.87;;;5.40;99.90;;;;;;5003414;28;20195;-90
2022/11/29 13:50:44;;;;;;;44.40;23.87;;;5.30;99.90;;;;;;5015819;28;20182;-90